Stevensville, Montana
Current Conditions -  °F | °C
As of 6:53 AM on Monday 20 Oct 2014 (Local Time) from KMSO Reporting Station
Few Clouds Few Clouds  
Wind Chill: 33°   Ceiling: Unl
Heat Index: 33°   Visibility: 9mi
Dew Point: 32°   Wind: 3mph
Humidity: 96%   Direction: 350°N
Pressure: 29.93"   Gusts: NA
Location:  46.51°N, 114.09°W
Report Text: KMSO 201253Z 35003KT 9SM FEW004 01/00 A2993 RMK AO2 SLP143 T00060000
Loading
Personal Weather Stations






























Interactive Weather Map
Tropical Storm Tracking
New forecast layout! Learn more

10-Day Weather Forecast

Advertisements
Track Severe Weather on mobile